Monday, December 18, 2017, 2:30 PM GMT
Back to Local

CWQH, Lennoxville

Location: , , Canada Lat: 45.367
Local Time: 2:30 PM GMT (14:30 GMT) Lon: -71.817
Time Zone: GMT Elev: 593 ft

Show me the last for .
Show Decoded

2017-12-18 14:00 METAR CWQH 181400Z AUTO 04001KT M15/M17 RMK AO1 SOG 13 T11521173 =
2017-12-18 13:00 METAR CWQH 181300Z AUTO 01001KT M16/M18 RMK AO1 SOG 13 T11641175 =
2017-12-18 12:00 METAR CWQH 181200Z AUTO 05002KT M17/M20 RMK AO1 SOG 13 T11741195 =
2017-12-18 11:00 METAR CWQH 181100Z AUTO 05003KT M18/M20 RMK AO1 SOG 13 T11761197 =
2017-12-18 10:00 METAR CWQH 181000Z AUTO 02002KT M18/M20 RMK AO1 SOG 14 T11821203 =
2017-12-18 09:00 METAR CWQH 180900Z AUTO 06004KT M19/M21 RMK AO1 SOG 13 T11891210 =
2017-12-18 08:00 METAR CWQH 180800Z AUTO 04003KT M20/M21 RMK AO1 SOG 14 T11951214 =
2017-12-18 07:00 METAR CWQH 180700Z AUTO 05006KT M20/M22 RMK AO1 SOG 14 T12031224 =
2017-12-18 06:00 METAR CWQH 180600Z AUTO 06005KT M21/M23 RMK AO1 SOG 13 T12121232 =
2017-12-18 05:00 METAR CWQH 180500Z AUTO 07004KT M21/M23 RMK AO1 SOG 14 T12141233 =
2017-12-18 04:00 METAR CWQH 180400Z AUTO 04004KT M21/M23 RMK AO1 SOG 14 T12131232 =
2017-12-18 03:00 METAR CWQH 180300Z AUTO 19002KT M21/M23 RMK AO1 SOG 14 T12121230 =
2017-12-18 02:00 METAR CWQH 180200Z AUTO 06003KT M22/M24 RMK AO1 SOG 14 T12181236 =
2017-12-18 01:00 METAR CWQH 180100Z AUTO 00000KT M20/M22 RMK AO1 SOG 14 T12001215 =
2017-12-18 00:00 METAR CWQH 180000Z AUTO 06003KT M18/M20 RMK AO1 SOG 14 T11831200 =
2017-12-17 23:00 METAR CWQH 172300Z AUTO 10001KT M16/M18 RMK AO1 SOG 14 T11611181 =
2017-12-17 22:00 METAR CWQH 172200Z AUTO 29001KT M14/M17 RMK AO1 SOG 14 T11421172 =
2017-12-17 21:00 METAR CWQH 172100Z AUTO 30004KT M13/M16 RMK AO1 SOG 14 T11261155 =
2017-12-17 20:00 METAR CWQH 172000Z AUTO 29005KT M12/M16 RMK AO1 SOG 15 T11171155 =
2017-12-17 19:00 METAR CWQH 171900Z AUTO 32007KT M12/M16 RMK AO1 SOG 15 T11191163 =
2017-12-17 18:00 METAR CWQH 171800Z AUTO 32006KT M12/M16 RMK AO1 SOG 15 T11221163 50011 =
2017-12-17 17:00 METAR CWQH 171700Z AUTO 31005KT M13/M17 RMK AO1 SOG 15 T11311168 50011 =
2017-12-17 16:00 METAR CWQH 171600Z AUTO 32006KT M14/M17 RMK AO1 SOG 15 T11391170 50011 =
2017-12-17 15:00 METAR CWQH 171500Z AUTO 30005KT M15/M18 RMK AO1 1PAST HR SOG 15 M P0004
                 T11461176 50011 =

Support USWX by starting your Amazon purchase here.